Time;durP1;ratioP1;P1;durP2;ratioP2;P2;SDS_P1;SDS_P2;PMS_P1;PMS_P2;Temp;Humidity;BMP_temperature;BMP_pressure;BME280_temperature;BME280_humidity;BME280_pressure;Samples;Min_cycle;Max_cycle;Signal;HPM_P1;HPM_P2
2023/04/17 00:01:11;;;;;;;4.07;3.40;;;;;;;10.06;77.85;100623.66;5094140;28;20048;-75
2023/04/17 00:03:39;;;;;;;5.57;3.88;;;;;;;10.20;77.17;100637.59;5112292;28;20051;-75
2023/04/17 00:06:07;;;;;;;4.72;3.67;;;;;;;10.20;78.64;100629.38;5073768;28;20450;-75
2023/04/17 00:08:35;;;;;;;3.92;3.40;;;;;;;10.26;77.40;100637.59;5091753;28;20044;-75
2023/04/17 00:11:03;;;;;;;4.93;3.50;;;;;;;10.16;80.14;100631.03;5091973;28;20402;-75
2023/04/17 00:13:35;;;;;;;4.43;3.55;;;;;;;9.97;79.88;100628.03;5091643;28;20059;-75
2023/04/17 00:16:04;;;;;;;4.13;3.45;;;;;;;9.87;79.77;100639.78;5091708;28;20045;-75
2023/04/17 00:18:34;;;;;;;3.65;3.35;;;;;;;9.92;79.29;100639.78;5091660;28;20062;-75
2023/04/17 00:21:02;;;;;;;5.75;3.83;;;;;;;9.89;79.38;100642.25;5073688;28;20044;-75
2023/04/17 00:23:30;;;;;;;3.42;3.13;;;;;;;9.86;78.81;100635.44;5103186;28;20512;-75
2023/04/17 00:25:58;;;;;;;4.43;3.25;;;;;;;9.87;79.38;100636.25;5093980;28;20044;-75
2023/04/17 00:28:26;;;;;;;4.15;3.20;;;;;;;9.81;78.96;100617.13;5111391;28;20060;-75
2023/04/17 00:30:54;;;;;;;6.03;3.50;;;;;;;9.97;79.51;100627.22;5111511;28;20036;-75
2023/04/17 00:33:22;;;;;;;5.45;3.95;;;;;;;9.88;79.00;100635.16;5111904;28;20036;-75
2023/04/17 00:35:50;;;;;;;4.40;3.42;;;;;;;9.86;78.91;100624.50;5095007;28;20043;-75
2023/04/17 00:38:18;;;;;;;3.97;3.35;;;;;;;9.79;79.24;100627.50;5115613;28;20051;-75
2023/04/17 00:40:47;;;;;;;4.43;3.78;;;;;;;9.74;79.12;100623.94;5115640;28;20047;-75
2023/04/17 00:43:15;;;;;;;5.18;3.88;;;;;;;9.62;80.96;100627.78;5115854;28;20040;-74
2023/04/17 00:45:45;;;;;;;5.80;4.00;;;;;;;9.50;80.56;100608.09;5115668;28;20039;-75
2023/04/17 00:48:15;;;;;;;4.55;3.78;;;;;;;9.60;80.35;100616.31;5114882;28;20055;-75
2023/04/17 00:50:44;;;;;;;3.75;3.33;;;;;;;9.49;80.30;100615.44;5115665;28;20035;-75
2023/04/17 00:53:13;;;;;;;6.75;3.67;;;;;;;9.53;80.30;100607.53;5097290;28;20039;-75
2023/04/17 00:55:42;;;;;;;4.55;3.40;;;;;;;9.49;81.05;100606.47;5115545;28;20055;-75
2023/04/17 00:58:10;;;;;;;4.00;3.50;;;;;;;9.54;80.65;100620.94;5115165;28;20070;-75
2023/04/17 01:00:38;;;;;;;4.10;3.70;;;;;;;9.54;79.45;100609.19;5114642;28;20047;-74
2023/04/17 01:03:07;;;;;;;5.57;3.92;;;;;;;9.55;80.01;100616.28;5080212;28;20050;-75
2023/04/17 01:05:37;;;;;;;5.03;4.03;;;;;;;9.51;80.96;100610.56;5115330;28;20047;-75
2023/04/17 01:08:05;;;;;;;4.10;3.63;;;;;;;9.51;80.95;100605.09;5114933;28;20047;-74
2023/04/17 01:10:33;;;;;;;3.50;3.20;;;;;;;9.53;80.20;100604.81;5114915;28;20055;-74
2023/04/17 01:13:06;;;;;;;7.82;4.05;;;;;;;9.61;81.83;100608.91;5097055;28;20379;-75
2023/04/17 01:15:35;;;;;;;4.07;3.30;;;;;;;9.54;81.03;100615.47;5097117;28;20044;-75
2023/04/17 01:18:05;;;;;;;5.97;3.33;;;;;;;9.52;81.34;100606.72;5096601;28;20471;-75
2023/04/17 01:20:33;;;;;;;4.80;3.60;;;;;;;9.48;80.90;100599.34;5096854;28;20048;-75
2023/04/17 01:23:01;;;;;;;5.55;3.60;;;;;;;9.56;80.58;100604.28;5096876;28;20040;-75
2023/04/17 01:25:29;;;;;;;4.90;3.85;;;;;;;9.46;81.61;100606.97;5096639;28;20052;-75
2023/04/17 01:27:57;;;;;;;4.50;3.58;;;;;;;9.45;80.85;100592.53;5103333;28;20059;-75
2023/04/17 01:30:27;;;;;;;6.22;4.20;;;;;;;9.38;80.72;100590.06;5072281;28;20063;-75
2023/04/17 01:33:15;;;;;;;3.47;3.17;;;;;;;9.49;81.07;100592.78;5094005;28;20048;-75
2023/04/17 01:35:43;;;;;;;6.05;4.22;;;;;;;9.40;80.43;100587.84;5091770;28;20047;-75
2023/04/17 01:38:11;;;;;;;5.35;3.67;;;;;;;9.41;81.13;100614.09;5094184;28;20517;-75
2023/04/17 01:40:39;;;;;;;4.32;3.25;;;;;;;9.38;81.39;100611.91;5092248;28;20059;-75
2023/04/17 01:43:07;;;;;;;4.13;3.38;;;;;;;9.28;81.70;100595.50;5094281;28;20044;-75
2023/04/17 01:45:34;;;;;;;4.82;3.33;;;;;;;9.25;81.69;100601.50;5093734;28;20040;-75
2023/04/17 01:48:02;;;;;;;4.22;3.25;;;;;;;9.20;81.77;100599.59;5092575;28;20047;-75
2023/04/17 01:50:30;;;;;;;3.63;3.25;;;;;;;9.24;82.11;100610.78;5092831;28;20051;-75
2023/04/17 01:52:58;;;;;;;6.65;3.70;;;;;;;9.24;81.69;100610.78;5094123;28;20051;-75
2023/04/17 01:55:26;;;;;;;4.07;3.28;;;;;;;9.25;81.77;100596.84;5076770;28;20051;-75
2023/04/17 01:57:54;;;;;;;4.28;2.88;;;;;;;9.32;81.80;100599.31;5080082;28;20040;-75
2023/04/17 02:00:22;;;;;;;3.88;3.13;;;;;;;9.37;82.46;100596.63;5092627;28;20040;-75
2023/04/17 02:02:50;;;;;;;4.55;3.10;;;;;;;9.36;81.58;100607.81;5093832;28;20048;-75
2023/04/17 02:05:18;;;;;;;3.15;2.78;;;;;;;9.21;81.71;100597.66;5093524;28;20055;-75
2023/04/17 02:07:49;;;;;;;3.55;3.03;;;;;;;9.19;82.10;100591.66;5087165;28;20052;-75
2023/04/17 02:10:18;;;;;;;3.47;3.00;;;;;;;9.18;83.22;100596.28;5073417;28;20045;-75
2023/04/17 02:12:46;;;;;;;3.33;3.03;;;;;;;9.25;82.99;100601.50;5072257;28;20067;-75
2023/04/17 02:15:14;;;;;;;4.45;3.38;;;;;;;9.25;83.25;100606.97;5073465;28;20049;-75
2023/04/17 02:17:42;;;;;;;3.90;3.20;;;;;;;9.35;81.79;100601.53;5088647;28;20509;-75
2023/04/17 02:20:11;;;;;;;3.80;3.08;;;;;;;9.33;82.49;100606.44;5073242;28;20045;-75
2023/04/17 02:22:38;;;;;;;3.20;2.83;;;;;;;9.37;82.21;100604.81;5071391;28;20059;-75
2023/04/17 02:25:07;;;;;;;8.07;3.60;;;;;;;9.36;82.49;100605.06;5071660;28;20044;-75
2023/04/17 02:27:35;;;;;;;3.25;2.95;;;;;;;9.25;82.60;100602.31;5076098;28;20036;-75
2023/04/17 02:30:03;;;;;;;3.88;3.17;;;;;;;9.22;82.54;100596.56;5093937;28;20055;-75
2023/04/17 02:32:31;;;;;;;3.95;3.10;;;;;;;9.14;84.13;100590.56;5075243;28;20071;-75
2023/04/17 02:35:00;;;;;;;4.28;3.22;;;;;;;9.09;83.48;100587.81;5083111;28;20047;-75
2023/04/17 02:37:28;;;;;;;3.28;2.78;;;;;;;9.09;83.66;100598.72;5113412;28;20047;-75
2023/04/17 02:39:56;;;;;;;5.20;3.22;;;;;;;9.11;83.83;100590.28;5095081;28;20063;-75
2023/04/17 02:42:24;;;;;;;5.80;3.15;;;;;;;9.13;84.51;100602.56;5113381;28;20048;-74
2023/04/17 02:44:52;;;;;;;3.42;2.90;;;;;;;9.12;84.39;100598.22;5095149;28;20047;-75
2023/04/17 02:47:21;;;;;;;3.92;3.20;;;;;;;9.04;83.36;100585.06;5077155;28;20494;-75
2023/04/17 02:49:49;;;;;;;3.13;2.85;;;;;;;9.04;83.24;100590.53;5074502;28;20059;-75
2023/04/17 02:52:17;;;;;;;4.25;2.88;;;;;;;9.03;83.84;100593.56;5092817;28;20040;-75
2023/04/17 02:54:46;;;;;;;4.85;3.10;;;;;;;8.99;83.49;100593.25;5077884;28;20050;-75
2023/04/17 02:57:14;;;;;;;3.05;2.58;;;;;;;8.89;83.52;100587.78;5094156;28;20048;-75
2023/04/17 02:59:42;;;;;;;4.20;2.83;;;;;;;8.95;84.48;100594.88;5092528;28;20047;-75
2023/04/17 03:02:13;;;;;;;2.92;2.63;;;;;;;8.91;83.36;100602.78;5073962;28;20055;-75
2023/04/17 03:04:41;;;;;;;2.25;2.05;;;;;;;8.93;83.44;100606.06;5057836;28;20059;-75
2023/04/17 03:07:09;;;;;;;2.90;2.50;;;;;;;8.91;83.82;100607.44;5092540;28;20051;-75
2023/04/17 03:09:38;;;;;;;2.55;2.35;;;;;;;8.90;82.90;100589.41;5074689;28;20047;-75
2023/04/17 03:12:06;;;;;;;3.80;2.45;;;;;;;8.85;83.46;100588.28;5094354;28;20509;-75
2023/04/17 03:14:34;;;;;;;3.15;2.00;;;;;;;8.86;84.76;100595.38;5094194;28;20043;-75
2023/04/17 03:17:01;;;;;;;5.18;2.30;;;;;;;8.79;83.71;100586.63;5112643;28;20139;-75
2023/04/17 03:19:29;;;;;;;2.72;1.77;;;;;;;8.95;82.38;100605.81;5075559;28;20044;-75
2023/04/17 03:21:57;;;;;;;2.60;2.28;;;;;;;9.03;82.84;100599.00;5074173;28;20078;-75
2023/04/17 03:24:25;;;;;;;3.72;2.20;;;;;;;9.01;82.88;100596.53;5074069;28;20044;-75
2023/04/17 03:26:53;;;;;;;4.50;2.22;;;;;;;9.03;83.43;100605.28;5074445;28;20051;-75
2023/04/17 03:29:22;;;;;;;2.72;2.08;;;;;;;8.94;82.32;100587.78;5089897;28;20047;-75
2023/04/17 03:31:50;;;;;;;2.63;1.80;;;;;;;8.87;82.87;100597.06;5074170;28;20048;-74
2023/04/17 03:34:20;;;;;;;2.40;2.20;;;;;;;8.96;83.71;100610.16;5092350;28;20047;-75
2023/04/17 03:36:49;;;;;;;2.75;2.00;;;;;;;8.93;82.50;100605.22;5074173;28;20047;-75
2023/04/17 03:39:17;;;;;;;3.55;2.50;;;;;;;8.95;82.90;100598.41;5091929;28;20516;-75
2023/04/17 03:41:45;;;;;;;2.85;1.92;;;;;;;8.82;82.57;100597.03;5073930;28;20490;-75
2023/04/17 03:44:13;;;;;;;2.50;2.28;;;;;;;8.83;84.27;100598.66;5074028;28;20040;-75
2023/04/17 03:46:41;;;;;;;2.72;2.40;;;;;;;8.81;84.14;100587.19;5073756;28;20451;-75
2023/04/17 03:49:09;;;;;;;2.83;2.58;;;;;;;8.87;83.04;100591.59;5091770;28;20044;-75
2023/04/17 03:51:38;;;;;;;3.60;2.50;;;;;;;8.85;84.27;100599.22;5073840;28;20048;-75
2023/04/17 03:54:12;;;;;;;3.88;2.00;;;;;;;8.82;83.51;100586.13;5073843;28;20051;-75
2023/04/17 03:56:42;;;;;;;2.88;2.40;;;;;;;8.89;83.37;100601.41;5073943;28;20505;-75
2023/04/17 03:59:10;;;;;;;2.42;2.22;;;;;;;8.93;83.37;100591.59;5089773;28;20048;-75
2023/04/17 04:01:42;;;;;;;4.07;2.60;;;;;;;8.82;83.76;100599.75;5093951;28;20055;-75
2023/04/17 04:04:19;;;;;;;3.10;2.70;;;;;;;8.84;83.16;100589.38;5093956;28;20043;-75
2023/04/17 04:06:49;;;;;;;3.35;2.92;;;;;;;8.85;82.75;100582.03;5093902;28;20048;-75
2023/04/17 04:09:20;;;;;;;4.68;2.88;;;;;;;8.90;82.70;100597.59;5078286;28;20044;-73
2023/04/17 04:11:48;;;;;;;5.25;2.75;;;;;;;8.96;81.66;100594.63;5097791;28;20046;-75
2023/04/17 04:14:16;;;;;;;3.45;3.15;;;;;;;9.01;81.15;100602.81;5097534;28;20039;-75
2023/04/17 04:16:47;;;;;;;3.17;2.88;;;;;;;9.16;82.07;100600.38;5093030;28;20063;-75
2023/04/17 04:19:15;;;;;;;3.08;2.65;;;;;;;9.19;81.77;100600.66;5112252;28;20051;-75
2023/04/17 04:21:44;;;;;;;5.80;3.22;;;;;;;8.86;81.98;100606.31;5081054;28;20047;-76
2023/04/17 04:24:13;;;;;;;4.57;3.10;;;;;;;9.08;82.35;100608.03;5097941;28;20054;-75
2023/04/17 04:26:42;;;;;;;3.75;3.13;;;;;;;9.04;81.92;100606.91;5097708;28;20398;-75
2023/04/17 04:29:12;;;;;;;3.20;2.63;;;;;;;9.11;82.89;100591.13;5097018;28;20421;-75
2023/04/17 04:32:08;;;;;;;3.92;3.00;;;;;;;8.95;82.31;100597.63;5112884;28;20063;-75
2023/04/17 04:34:43;;;;;;;3.28;2.90;;;;;;;9.03;82.63;100604.47;5083608;28;20064;-75
2023/04/17 04:37:14;;;;;;;3.22;2.60;;;;;;;8.99;82.66;100605.00;5113573;28;20063;-75
2023/04/17 04:39:46;;;;;;;3.67;2.60;;;;;;;9.14;81.42;100611.56;5088771;28;20040;-75
2023/04/17 04:42:20;;;;;;;3.83;2.45;;;;;;;9.32;79.84;100615.72;5090266;28;20054;-75
2023/04/17 04:44:58;;;;;;;6.25;2.83;;;;;;;9.20;80.29;100612.41;5095568;28;20398;-75
2023/04/17 04:47:29;;;;;;;3.75;2.70;;;;;;;9.24;81.12;100610.78;5077305;28;20048;-75
2023/04/17 04:49:57;;;;;;;4.57;2.22;;;;;;;9.24;81.91;100605.34;5081840;28;20059;-80
2023/04/17 04:52:25;;;;;;;3.65;2.75;;;;;;;9.51;78.39;100598.81;5091456;28;20047;-75
2023/04/17 04:54:57;;;;;;;5.82;2.90;;;;;;;9.41;78.69;100600.44;5077136;28;20040;-75
2023/04/17 04:57:25;;;;;;;4.60;2.80;;;;;;;9.34;79.53;100597.13;5077004;28;20040;-75
2023/04/17 04:59:57;;;;;;;3.90;2.92;;;;;;;9.48;78.20;100599.34;5077166;28;20399;-75
2023/04/17 05:02:33;;;;;;;5.88;3.55;;;;;;;9.49;77.05;100604.53;5076787;28;20490;-77
2023/04/17 05:05:03;;;;;;;4.38;3.25;;;;;;;9.66;77.54;100617.13;5064701;28;20051;-74
2023/04/17 05:07:33;;;;;;;3.83;3.13;;;;;;;9.83;76.44;100633.25;5095640;28;20050;-75
2023/04/17 05:10:04;;;;;;;6.05;3.03;;;;;;;9.90;75.90;100639.25;5061078;28;20055;-75
2023/04/17 05:12:36;;;;;;;4.32;3.20;;;;;;;10.06;75.17;100631.03;5080720;28;20074;-74
2023/04/17 05:15:07;;;;;;;3.47;2.70;;;;;;;10.12;76.14;100629.94;5087716;28;20044;-76
2023/04/17 05:17:36;;;;;;;5.22;2.63;;;;;;;10.27;74.31;100636.50;5077124;28;20048;-77
2023/04/17 05:20:05;;;;;;;5.88;3.03;;;;;;;10.34;75.70;100639.75;5076732;28;20059;-76
2023/04/17 05:22:37;;;;;;;4.07;2.50;;;;;;;10.12;76.01;100632.66;5076244;28;20051;-76
2023/04/17 05:26:43;;;;;;;8.65;2.72;;;;;;;10.16;77.22;100641.16;5109463;27;20170;-75
2023/04/17 05:29:12;;;;;;;4.45;2.42;;;;;;;10.11;76.42;100633.75;5108385;28;20437;-75
2023/04/17 05:31:41;;;;;;;3.85;2.70;;;;;;;10.22;76.10;100643.59;5083151;28;20523;-75
2023/04/17 05:34:21;;;;;;;4.15;2.53;;;;;;;10.30;77.91;100636.75;5108135;28;20051;-75
2023/04/17 05:36:49;;;;;;;2.85;2.17;;;;;;;10.43;78.55;100635.41;5082389;28;20049;-75
2023/04/17 05:39:17;;;;;;;3.30;2.40;;;;;;;10.57;73.54;100629.31;5088154;28;20055;-75
2023/04/17 05:41:45;;;;;;;4.15;2.70;;;;;;;10.75;74.43;100633.34;5098593;28;20063;-82
2023/04/17 05:44:13;;;;;;;3.85;2.20;;;;;;;11.02;73.03;100627.50;5087613;28;21903;-75
2023/04/17 05:46:42;;;;;;;7.90;2.75;;;;;;;11.21;70.50;100642.47;5101201;28;20056;-76
2023/04/17 05:49:11;;;;;;;8.23;2.58;;;;;;;11.15;71.92;100634.25;5084117;28;20044;-76
2023/04/17 05:51:39;;;;;;;3.67;2.15;;;;;;;11.14;72.07;100638.13;5067476;28;20056;-76
2023/04/17 05:54:07;;;;;;;6.15;2.40;;;;;;;11.19;70.95;100650.16;5067762;28;20078;-76
2023/04/17 05:56:36;;;;;;;3.30;2.40;;;;;;;11.09;71.97;100654.56;5101309;28;20047;-76
2023/04/17 05:59:04;;;;;;;8.13;2.67;;;;;;;11.19;73.14;100661.09;5067180;28;20049;-76
2023/04/17 06:01:32;;;;;;;4.22;2.88;;;;;;;11.21;73.65;100651.50;5100853;28;20040;-76
2023/04/17 06:04:00;;;;;;;5.75;3.03;;;;;;;11.12;74.20;100650.44;5101094;28;20052;-77
2023/04/17 06:06:29;;;;;;;5.45;2.33;;;;;;;11.12;73.83;100662.22;5067994;28;20053;-77
2023/04/17 06:08:58;;;;;;;3.03;2.33;;;;;;;11.08;73.18;100661.16;5066928;28;20051;-77
2023/04/17 06:11:26;;;;;;;4.63;2.53;;;;;;;11.10;74.12;100661.69;5067001;28;20060;-77
2023/04/17 06:13:54;;;;;;;6.80;2.58;;;;;;;11.20;72.72;100666.28;5100711;28;20041;-77
2023/04/17 06:16:23;;;;;;;4.63;2.40;;;;;;;11.32;73.19;100676.91;5100445;28;20048;-77
2023/04/17 06:18:51;;;;;;;6.35;2.45;;;;;;;11.43;71.48;100683.16;5100662;28;20479;-77
2023/04/17 06:21:20;;;;;;;3.55;2.38;;;;;;;11.47;71.12;100670.53;5067888;28;20056;-77
2023/04/17 06:23:48;;;;;;;3.53;2.28;;;;;;;11.60;70.47;100666.34;5067947;28;20593;-77
2023/04/17 06:26:17;;;;;;;3.30;2.25;;;;;;;11.66;69.90;100676.16;5066243;28;20057;-77
2023/04/17 06:28:45;;;;;;;4.53;2.13;;;;;;;11.62;71.01;100683.31;5066521;28;20419;-77
2023/04/17 06:31:13;;;;;;;4.68;2.47;;;;;;;11.60;72.46;100680.03;5100148;28;20060;-77
2023/04/17 06:33:42;;;;;;;4.57;2.30;;;;;;;11.79;71.01;100679.38;5067653;28;20052;-77
2023/04/17 06:36:11;;;;;;;4.95;2.30;;;;;;;11.78;70.30;100684.00;5097299;28;20045;-77
2023/04/17 06:38:45;;;;;;;3.63;2.42;;;;;;;11.86;69.34;100679.84;5086579;28;20258;-77
2023/04/17 06:41:15;;;;;;;4.15;2.55;;;;;;;11.88;70.34;100679.56;5086499;28;20049;-77
2023/04/17 06:43:43;;;;;;;3.42;2.13;;;;;;;12.09;67.46;100688.47;5053121;28;20057;-77
2023/04/17 06:46:14;;;;;;;3.45;2.63;;;;;;;12.17;68.09;100681.56;5052889;28;20155;-77
2023/04/17 06:48:42;;;;;;;5.03;2.45;;;;;;;12.27;66.24;100686.94;5054061;28;20045;-77
2023/04/17 06:51:13;;;;;;;2.90;2.45;;;;;;;12.45;65.55;100682.66;5054061;28;20045;-77
2023/04/17 06:53:41;;;;;;;3.63;2.60;;;;;;;12.72;66.34;100700.47;5054125;28;20507;-77
2023/04/17 06:56:09;;;;;;;3.67;2.30;;;;;;;12.86;66.00;100694.31;5054036;28;20045;-77
2023/04/17 06:58:42;;;;;;;3.90;2.25;;;;;;;13.19;66.79;100691.69;5053767;28;20510;-77
2023/04/17 07:01:12;;;;;;;4.60;2.65;;;;;;;13.26;65.76;100692.13;5053907;28;20052;-77
2023/04/17 07:03:41;;;;;;;6.95;2.58;;;;;;;13.49;67.19;100702.59;5085804;28;20049;-77
2023/04/17 07:06:10;;;;;;;5.18;2.50;;;;;;;13.62;65.71;100695.53;5053606;28;20052;-77
2023/04/17 07:08:38;;;;;;;2.67;2.42;;;;;;;13.82;65.25;100713.66;5085674;28;20048;-77
2023/04/17 07:11:06;;;;;;;4.10;2.60;;;;;;;13.85;66.23;100707.56;5053721;28;20052;-77
2023/04/17 07:13:34;;;;;;;3.60;2.70;;;;;;;14.02;64.07;100709.75;5085678;28;20119;-77
2023/04/17 07:16:04;;;;;;;6.10;2.50;;;;;;;14.30;65.17;100703.53;5053564;28;20479;-77
2023/04/17 07:18:33;;;;;;;4.70;2.90;;;;;;;14.40;63.73;100706.09;5053623;28;20045;-77
2023/04/17 07:21:01;;;;;;;5.43;2.55;;;;;;;14.52;61.68;100714.69;5053573;28;20045;-77
2023/04/17 07:23:29;;;;;;;3.20;2.30;;;;;;;14.45;59.99;100713.44;5053504;28;20045;-77
2023/04/17 07:25:57;;;;;;;3.53;2.33;;;;;;;14.64;64.27;100711.44;5053154;28;20399;-77
2023/04/17 07:28:25;;;;;;;2.33;1.92;;;;;;;14.57;59.79;100716.53;5053344;28;20052;-77
2023/04/17 07:30:53;;;;;;;2.75;2.28;;;;;;;14.69;60.06;100718.78;5053402;28;20052;-77
2023/04/17 07:33:21;;;;;;;4.90;2.50;;;;;;;14.85;58.50;100721.25;5053339;28;20147;-77
2023/04/17 07:35:49;;;;;;;2.30;2.05;;;;;;;15.05;58.02;100723.63;5053467;28;20049;-77
2023/04/17 07:38:17;;;;;;;3.95;2.25;;;;;;;15.23;58.40;100732.09;5053351;28;20060;-79
2023/04/17 07:40:45;;;;;;;2.72;2.47;;;;;;;15.29;57.95;100717.06;5053209;28;20048;-76
2023/04/17 07:43:14;;;;;;;3.50;2.13;;;;;;;15.58;55.72;100731.63;5052949;28;20048;-76
2023/04/17 07:45:42;;;;;;;4.25;2.25;;;;;;;15.72;54.81;100726.88;5052852;28;20058;-76
2023/04/17 07:48:10;;;;;;;3.45;1.95;;;;;;;15.65;55.55;100728.44;5051992;28;20056;-76
2023/04/17 07:50:38;;;;;;;8.82;2.50;;;;;;;15.81;55.11;100732.47;5051098;28;20060;-77
2023/04/17 07:53:06;;;;;;;5.88;2.85;;;;;;;15.77;55.64;100736.16;5052878;28;20049;-76
2023/04/17 07:55:34;;;;;;;4.25;2.53;;;;;;;15.89;55.19;100730.09;5052846;28;20037;-76
2023/04/17 07:58:02;;;;;;;3.35;2.35;;;;;;;16.17;51.92;100736.34;5052915;28;20049;-77
2023/04/17 08:00:31;;;;;;;4.88;2.80;;;;;;;16.22;52.81;100757.47;5052883;28;20049;-77
2023/04/17 08:03:00;;;;;;;3.03;2.10;;;;;;;16.42;53.32;100747.88;5052915;28;20045;-77
2023/04/17 08:05:29;;;;;;;1.60;1.50;;;;;;;16.79;46.13;100742.22;5084278;28;20048;-77
2023/04/17 08:07:59;;;;;;;1.77;1.30;;;;;;;16.91;45.12;100753.47;5052695;28;20052;-78
2023/04/17 08:10:27;;;;;;;4.72;1.85;;;;;;;17.52;44.53;100754.81;5052701;28;20044;-78
2023/04/17 08:12:55;;;;;;;5.28;1.67;;;;;;;17.93;45.05;100751.94;5053196;28;20041;-78
2023/04/17 08:15:23;;;;;;;4.10;2.15;;;;;;;18.51;45.41;100760.84;5089142;28;20070;-77
2023/04/17 08:17:51;;;;;;;5.53;2.13;;;;;;;18.83;41.94;100765.28;5057513;28;20065;-78
2023/04/17 08:20:19;;;;;;;3.72;1.52;;;;;;;18.45;42.14;100761.31;5052644;28;20049;-76
2023/04/17 08:22:47;;;;;;;5.05;2.00;;;;;;;18.61;42.15;100759.66;5052374;28;20041;-77
2023/04/17 08:25:15;;;;;;;2.63;1.75;;;;;;;18.61;40.40;100754.13;5052136;28;20048;-77
2023/04/17 08:27:44;;;;;;;3.78;1.80;;;;;;;18.58;42.31;100759.50;5052450;28;20395;-77
2023/04/17 08:30:12;;;;;;;3.65;2.22;;;;;;;18.40;41.93;100760.38;5052400;28;20045;-77
2023/04/17 08:32:46;;;;;;;2.50;1.60;;;;;;;18.53;40.67;100764.06;5052352;28;20377;-77
2023/04/17 08:35:16;;;;;;;2.47;1.70;;;;;;;18.65;40.34;100759.81;5052257;28;20502;-77
2023/04/17 08:37:47;;;;;;;5.45;1.83;;;;;;;18.57;44.84;100769.78;5052121;28;20041;-78
2023/04/17 08:40:17;;;;;;;1.75;1.65;;;;;;;18.50;41.68;100759.22;5052229;28;20049;-78
2023/04/17 08:42:46;;;;;;;1.48;1.17;;;;;;;17.95;38.50;100757.94;5052220;28;20052;-78
2023/04/17 08:45:15;;;;;;;2.97;1.23;;;;;;;17.38;40.59;100754.97;5052133;28;20048;-78
2023/04/17 08:47:43;;;;;;;1.42;0.80;;;;;;;17.26;38.70;100769.41;5050920;28;20045;-77
2023/04/17 08:50:13;;;;;;;3.53;0.80;;;;;;;17.25;39.17;100761.44;5052176;28;20037;-78
2023/04/17 08:52:43;;;;;;;2.88;0.90;;;;;;;17.25;38.95;100772.50;5051972;28;20053;-78
2023/04/17 08:55:13;;;;;;;2.22;0.85;;;;;;;17.44;40.35;100774.97;5052019;28;20045;-78
2023/04/17 08:57:55;;;;;;;0.98;0.82;;;;;;;17.69;38.39;100769.84;5051102;28;20055;-77
2023/04/17 09:00:31;;;;;;;1.67;1.23;;;;;;;17.45;39.44;100762.78;5050357;28;20476;-78
2023/04/17 09:03:02;;;;;;;3.30;1.10;;;;;;;17.32;41.14;100767.31;5049977;28;20052;-78
2023/04/17 09:05:32;;;;;;;0.93;0.80;;;;;;;17.32;40.21;100767.31;5050708;28;20048;-80
2023/04/17 09:08:08;;;;;;;1.73;1.20;;;;;;;17.17;38.78;100766.59;5051587;28;20049;-78
2023/04/17 09:10:40;;;;;;;4.40;1.10;;;;;;;17.19;39.82;100764.34;5052027;28;20056;-78
2023/04/17 09:13:08;;;;;;;2.45;1.10;;;;;;;17.11;39.75;100762.34;5051867;28;20049;-77
2023/04/17 09:15:38;;;;;;;4.10;1.55;;;;;;;16.96;40.65;100755.28;5051511;28;20052;-77
2023/04/17 09:18:23;;;;;;;1.42;1.33;;;;;;;17.13;39.79;100751.81;5051619;28;20057;-77
2023/04/17 09:20:52;;;;;;;1.00;0.68;;;;;;;17.13;39.35;100750.97;5051673;28;20049;-77
2023/04/17 09:23:22;;;;;;;2.97;1.13;;;;;;;17.22;40.02;100751.00;5050421;28;20045;-77
2023/04/17 09:26:14;;;;;;;1.88;1.30;;;;;;;17.27;40.49;100756.41;5051195;28;20052;-77
2023/04/17 09:29:13;;;;;;;1.63;1.20;;;;;;;17.27;39.71;100748.09;5051345;28;20049;-77
2023/04/17 09:31:42;;;;;;;1.15;1.05;;;;;;;17.31;39.29;100746.31;5051604;28;20072;-77
2023/04/17 09:34:12;;;;;;;2.83;0.90;;;;;;;17.45;38.81;100754.50;5050176;28;20037;-77
2023/04/17 09:36:42;;;;;;;1.35;1.15;;;;;;;17.47;40.66;100752.22;5051367;28;20052;-77
2023/04/17 09:39:23;;;;;;;3.83;1.00;;;;;;;17.66;39.42;100746.38;5051306;28;20395;-77
2023/04/17 09:42:02;;;;;;;2.33;1.20;;;;;;;17.77;40.31;100760.72;5051387;28;20063;-77
2023/04/17 09:44:31;;;;;;;2.00;1.50;;;;;;;17.94;40.43;100746.03;5051225;28;20041;-77
2023/04/17 09:47:00;;;;;;;17.30;1.90;;;;;;;18.10;40.29;100754.69;5049827;28;20048;-77
2023/04/17 09:49:41;;;;;;;2.55;1.80;;;;;;;18.04;41.02;100749.63;5051287;28;20353;-77
2023/04/17 09:52:10;;;;;;;9.20;2.00;;;;;;;18.03;40.85;100745.25;5051405;28;20052;-77
2023/04/17 09:54:39;;;;;;;2.78;1.83;;;;;;;18.06;42.08;100744.59;5050115;28;20049;-77
2023/04/17 09:57:09;;;;;;;2.60;2.03;;;;;;;18.54;39.86;100757.38;5051187;28;20053;-77
2023/04/17 09:59:38;;;;;;;1.55;1.45;;;;;;;19.07;38.18;100760.00;5051419;28;20044;-77
2023/04/17 10:02:08;;;;;;;2.30;1.60;;;;;;;19.48;40.69;100745.75;5051293;28;20514;-78
2023/04/17 10:04:40;;;;;;;3.20;1.70;;;;;;;19.40;39.53;100738.28;5050172;28;20044;-78
2023/04/17 10:07:08;;;;;;;5.82;2.25;;;;;;;20.07;36.77;100738.44;5051231;28;20052;-78
2023/04/17 10:09:40;;;;;;;2.70;1.73;;;;;;;20.62;37.98;100738.34;5051547;28;20048;-78
2023/04/17 10:12:14;;;;;;;4.57;2.10;;;;;;;21.32;35.98;100735.84;5052817;28;20045;-78
2023/04/17 10:14:47;;;;;;;2.03;1.85;;;;;;;21.24;36.32;100737.59;5055362;28;20041;-79
2023/04/17 10:17:30;;;;;;;2.60;2.33;;;;;;;21.13;36.49;100739.22;5055508;28;20053;-81
2023/04/17 10:20:16;;;;;;;2.45;1.85;;;;;;;20.18;36.77;100729.69;5055363;28;20052;-81
2023/04/17 10:22:55;;;;;;;2.28;1.42;;;;;;;19.81;37.29;100728.34;5055129;28;20053;-82
2023/04/17 10:25:27;;;;;;;2.45;1.48;;;;;;;19.57;38.11;100720.69;5053729;28;20041;-81
2023/04/17 10:28:00;;;;;;;2.85;1.45;;;;;;;19.42;36.59;100722.09;5054971;28;20049;-82
2023/04/17 10:30:52;;;;;;;2.00;1.60;;;;;;;19.10;37.52;100730.00;5053910;28;20053;-81
2023/04/17 10:33:26;;;;;;;2.20;1.30;;;;;;;19.28;37.40;100725.97;5055188;28;20048;-82
2023/04/17 10:35:54;;;;;;;2.05;1.35;;;;;;;19.46;38.02;100715.53;5054837;28;20392;-82
2023/04/17 10:38:35;;;;;;;3.50;1.23;;;;;;;19.49;36.48;100722.38;5057350;28;20698;-82
2023/04/17 10:41:07;;;;;;;1.05;0.98;;;;;;;19.66;37.63;100713.13;5054028;28;20508;-81
2023/04/17 10:43:40;;;;;;;0.93;0.80;;;;;;;19.62;35.24;100720.50;5053926;28;20045;-82
2023/04/17 10:46:11;;;;;;;3.85;1.17;;;;;;;19.69;36.63;100717.16;5053118;28;20052;-82
2023/04/17 10:48:48;;;;;;;0.80;0.80;;;;;;;19.72;36.60;100716.50;5054879;28;20395;-82
2023/04/17 10:51:28;;;;;;;1.10;0.98;;;;;;;19.59;35.27;100713.66;5071238;28;20051;-82
2023/04/17 10:53:58;;;;;;;1.55;1.05;;;;;;;19.38;35.49;100704.50;5065400;28;20495;-82
2023/04/17 10:56:34;;;;;;;1.27;1.10;;;;;;;19.50;37.87;100712.09;5054254;28;20049;-82
2023/04/17 10:59:06;;;;;;;4.25;1.55;;;;;;;19.36;37.68;100712.34;5085403;28;20049;-83
2023/04/17 11:01:46;;;;;;;4.90;1.95;;;;;;;19.49;35.78;100708.50;5054586;28;20044;-82
2023/04/17 11:04:33;;;;;;;1.98;1.60;;;;;;;19.75;36.71;100699.16;5054271;28;20044;-81
2023/04/17 11:07:03;;;;;;;4.65;2.20;;;;;;;19.72;38.18;100699.84;5054101;28;20041;-82
2023/04/17 11:09:31;;;;;;;1.73;1.52;;;;;;;19.67;35.90;100697.25;5054265;28;20075;-81
2023/04/17 11:12:03;;;;;;;3.10;1.90;;;;;;;19.95;36.90;100691.94;5054204;28;20052;-82
2023/04/17 11:14:31;;;;;;;2.08;1.88;;;;;;;20.08;35.23;100695.59;5054221;28;20056;-81
2023/04/17 11:17:00;;;;;;;1.60;1.40;;;;;;;20.22;32.65;100700.03;5054253;28;20507;-81
2023/04/17 11:19:28;;;;;;;1.45;1.35;;;;;;;20.49;35.69;100687.47;5054065;28;20056;-82
2023/04/17 11:21:57;;;;;;;1.73;1.40;;;;;;;20.21;33.95;100688.13;5052883;28;20049;-82
2023/04/17 11:24:27;;;;;;;1.85;1.42;;;;;;;20.43;36.33;100683.28;5053610;28;20072;-82
2023/04/17 11:26:58;;;;;;;1.77;1.40;;;;;;;20.55;35.95;100674.19;5053872;28;20510;-82
2023/04/17 11:29:27;;;;;;;1.90;1.80;;;;;;;20.71;34.92;100667.94;5053838;28;20049;-82
2023/04/17 11:31:56;;;;;;;2.33;1.55;;;;;;;21.01;35.42;100667.72;5053792;28;20044;-83
2023/04/17 11:34:25;;;;;;;3.17;1.58;;;;;;;20.91;35.59;100674.53;5053972;28;20045;-82
2023/04/17 11:36:59;;;;;;;1.35;1.20;;;;;;;20.78;35.16;100659.81;5052436;28;20045;-82
2023/04/17 11:39:32;;;;;;;3.08;1.80;;;;;;;20.42;36.14;100676.13;5085814;28;20400;-82
2023/04/17 11:42:03;;;;;;;2.13;1.63;;;;;;;20.85;38.12;100671.19;5052358;28;20049;-82
2023/04/17 11:44:32;;;;;;;2.22;1.67;;;;;;;20.85;33.76;100675.94;5052377;28;20056;-82